Time;durP1;ratioP1;P1;durP2;ratioP2;P2;SDS_P1;SDS_P2;PMS_P1;PMS_P2;Temp;Humidity;BMP_temperature;BMP_pressure;BME280_temperature;BME280_humidity;BME280_pressure;Samples;Min_cycle;Max_cycle;Signal;HPM_P1;HPM_P2
2022/05/07 00:01:05;;;;;;;7.83;7.03;;;11.00;77.10;;;9.87;74.47;98538.03;5081967;28;20456;-73
2022/05/07 00:03:33;;;;;;;7.50;6.70;;;11.00;77.40;;;9.76;75.40;98532.16;5086094;28;20483;-74
2022/05/07 00:06:00;;;;;;;7.90;6.77;;;10.80;78.20;;;9.69;76.44;98539.34;5102650;27;20456;-73
2022/05/07 00:08:28;;;;;;;7.13;6.53;;;10.80;79.40;;;9.62;77.00;98539.31;5088977;28;21024;-76
2022/05/07 00:10:55;;;;;;;7.60;7.00;;;10.70;80.40;;;9.57;78.03;98538.25;5083265;28;20548;-73
2022/05/07 00:13:22;;;;;;;8.23;6.80;;;10.70;81.80;;;9.53;78.35;98534.25;5072398;28;20446;-73
2022/05/07 00:18:31;;;;;;;8.53;7.53;;;10.60;83.20;;;9.38;80.28;98531.66;5085918;28;20874;-75
2022/05/07 00:20:59;;;;;;;8.97;8.07;;;10.50;84.70;;;9.30;80.46;98530.75;5105306;27;20555;-77
2022/05/07 00:23:27;;;;;;;7.33;6.67;;;10.40;85.90;;;9.25;79.69;98529.69;5085795;28;20450;-76
2022/05/07 00:25:54;;;;;;;8.77;7.53;;;10.40;85.10;;;9.04;80.39;98494.47;5081540;28;20461;-74
2022/05/07 00:28:21;;;;;;;7.93;7.10;;;10.30;86.00;;;9.10;80.62;98514.44;5082678;28;20546;-73
2022/05/07 00:30:48;;;;;;;7.77;6.97;;;10.30;86.80;;;9.19;80.15;98523.22;5100659;28;20564;-74
2022/05/07 00:33:15;;;;;;;8.93;8.13;;;10.30;86.90;;;9.11;81.30;98523.34;5084244;28;20495;-71
2022/05/07 00:35:42;;;;;;;8.83;8.03;;;10.20;87.10;;;9.07;81.39;98521.03;5082289;28;20451;-76
2022/05/07 00:38:11;;;;;;;8.10;7.27;;;10.20;88.50;;;9.00;82.53;98522.81;5087549;28;20534;-72
2022/05/07 00:40:38;;;;;;;9.27;8.37;;;10.10;89.90;;;8.90;84.07;98527.72;5084485;28;21018;-77
2022/05/07 00:43:05;;;;;;;12.17;8.17;;;10.00;90.70;;;8.86;84.61;98534.50;5081785;28;20479;-71
2022/05/07 00:45:32;;;;;;;10.30;8.30;;;10.00;91.30;;;8.78;84.21;98530.91;5079187;28;20542;-77
2022/05/07 00:48:00;;;;;;;8.67;7.87;;;9.90;91.90;;;8.88;82.59;98513.63;5078268;28;20491;-72
2022/05/07 00:53:13;;;;;;;9.63;8.27;;;10.10;90.30;;;9.06;80.48;98497.81;5082182;28;20909;-74
2022/05/07 00:55:42;;;;;;;15.10;8.87;;;10.20;88.10;;;9.11;80.91;98499.09;5088037;28;20891;-75
2022/05/07 00:58:09;;;;;;;9.17;7.00;;;10.20;88.00;;;9.02;80.62;98512.72;5084060;28;20451;-72
2022/05/07 01:00:36;;;;;;;8.10;7.30;;;10.20;88.00;;;8.89;81.54;98505.31;5079277;28;20507;-73
2022/05/07 01:03:05;;;;;;;9.70;7.83;;;10.10;88.90;;;8.75;82.78;98515.13;5084562;28;20904;-72
2022/05/07 01:05:31;;;;;;;13.00;8.17;;;9.90;90.60;;;8.56;84.14;98504.97;5076017;28;20457;-73
2022/05/07 01:08:00;;;;;;;11.70;8.47;;;9.80;91.40;;;8.55;84.56;98511.38;5084147;28;20527;-74
2022/05/07 01:10:29;;;;;;;11.50;8.67;;;9.60;92.50;;;8.43;85.67;98506.47;5084318;28;20494;-73
2022/05/07 01:12:56;;;;;;;9.70;8.50;;;9.50;92.90;;;8.47;85.28;98505.06;5090394;28;20447;-75
2022/05/07 01:15:24;;;;;;;13.93;8.97;;;9.50;93.30;;;8.05;84.91;98433.97;5084375;28;20542;-75
2022/05/07 01:17:51;;;;;;;14.43;8.40;;;9.60;93.10;;;8.40;85.31;98506.84;5085164;28;20539;-75
2022/05/07 01:20:18;;;;;;;9.20;8.40;;;9.50;92.90;;;8.35;85.59;98503.88;5079356;28;20480;-79
2022/05/07 01:22:48;;;;;;;11.60;8.73;;;9.50;93.60;;;8.32;85.49;98488.13;5079570;28;21021;-73
2022/05/07 01:25:15;;;;;;;9.27;8.47;;;9.40;93.50;;;8.35;84.91;98503.88;5081549;28;20488;-73
2022/05/07 01:27:42;;;;;;;10.20;8.10;;;9.50;93.00;;;8.25;86.57;98496.13;5082840;28;20938;-74
2022/05/07 01:30:11;;;;;;;8.27;7.47;;;9.40;93.80;;;8.16;87.95;98487.31;5082067;28;20547;-73
2022/05/07 01:32:38;;;;;;;9.50;8.50;;;9.30;95.00;;;8.06;88.48;98484.91;5081146;28;20467;-77
2022/05/07 01:35:06;;;;;;;11.83;7.87;;;9.30;96.10;;;8.09;88.53;98489.06;5083260;28;20543;-73
2022/05/07 01:37:33;;;;;;;10.03;8.87;;;9.20;96.30;;;8.06;88.86;98494.84;5077685;28;20501;-75
2022/05/07 01:40:02;;;;;;;16.27;9.53;;;9.20;96.90;;;7.98;89.32;98492.25;5078769;28;21006;-73
2022/05/07 01:42:29;;;;;;;9.60;8.60;;;9.20;97.60;;;7.98;89.77;98494.97;5039485;28;1082732;-77
2022/05/07 01:44:56;;;;;;;9.90;8.87;;;9.10;98.30;;;7.93;89.59;98496.31;5095843;28;20205;-72
2022/05/07 01:50:09;;;;;;;11.03;9.70;;;9.00;98.10;;;7.82;90.46;98494.13;5078523;28;20527;-73
2022/05/07 01:52:36;;;;;;;11.63;9.83;;;9.00;99.10;;;7.68;90.49;98473.44;5091865;27;20465;-76
2022/05/07 01:55:05;;;;;;;11.63;9.07;;;9.00;99.90;;;7.89;90.56;98494.22;5096807;27;20474;-73
2022/05/07 01:57:32;;;;;;;10.83;9.93;;;9.00;99.60;;;7.83;91.27;98503.00;5082532;28;20520;-74
2022/05/07 01:59:59;;;;;;;10.70;9.70;;;9.00;99.90;;;7.80;91.49;98496.13;5080577;28;20835;-77
2022/05/07 02:02:26;;;;;;;9.57;8.77;;;8.90;99.90;;;7.78;91.19;98503.56;5078907;28;21121;-72
2022/05/07 02:04:54;;;;;;;10.40;9.33;;;8.90;99.90;;;7.76;91.42;98497.53;5084842;28;20451;-74
2022/05/07 02:07:21;;;;;;;10.70;9.60;;;8.90;99.90;;;7.58;92.37;98477.22;5079217;28;20860;-80
2022/05/07 02:09:47;;;;;;;12.10;10.60;;;8.80;99.90;;;7.71;91.69;98499.97;5082193;28;20870;-76
2022/05/07 02:12:16;;;;;;;11.43;9.70;;;8.80;99.90;;;7.70;91.94;98495.59;5082589;28;20455;-73
2022/05/07 02:14:43;;;;;;;9.83;9.03;;;8.80;99.90;;;7.65;92.38;98494.28;5077339;28;20557;-75
2022/05/07 02:17:11;;;;;;;10.10;9.13;;;8.80;99.90;;;7.59;92.01;98491.53;5079573;28;20506;-72
2022/05/07 02:19:38;;;;;;;12.10;10.37;;;8.80;99.90;;;7.57;92.53;98491.69;5080529;28;20594;-79
2022/05/07 02:22:06;;;;;;;13.20;10.50;;;8.70;99.90;;;7.56;93.53;98495.41;5079828;28;20452;-73
2022/05/07 02:24:33;;;;;;;15.33;12.40;;;8.70;99.90;;;7.58;92.94;98497.91;5081039;28;21011;-74
2022/05/07 02:27:00;;;;;;;10.87;9.77;;;8.80;99.90;;;7.75;92.39;98503.94;5075426;28;20468;-77
2022/05/07 02:29:28;;;;;;;15.80;10.73;;;8.90;99.90;;;7.71;92.77;98499.97;5081135;28;20531;-72
2022/05/07 02:32:05;;;;;;;17.80;11.90;;;8.90;99.90;;;7.31;92.85;98460.69;5080293;28;20485;-75
2022/05/07 02:34:33;;;;;;;22.60;14.70;;;8.80;99.90;;;7.51;94.00;98503.19;5100040;27;20454;-72
2022/05/07 02:37:01;;;;;;;23.13;15.90;;;8.70;99.90;;;7.17;93.03;98432.81;5078069;28;20526;-72
2022/05/07 02:39:28;;;;;;;31.20;16.80;;;8.80;99.90;;;7.54;93.07;98502.81;5098479;27;20438;-72
2022/05/07 02:44:42;;;;;;;20.00;12.20;;;8.70;99.90;;;7.54;92.19;98497.44;5097953;27;20493;-76
2022/05/07 02:47:09;;;;;;;22.10;11.80;;;8.70;99.90;;;7.51;91.14;98497.81;5080018;28;20974;-73
2022/05/07 02:49:36;;;;;;;15.57;12.77;;;8.70;99.70;;;7.00;92.08;98448.22;5080466;28;20550;-72
2022/05/07 02:52:04;;;;;;;17.00;11.80;;;8.60;99.60;;;7.26;92.56;98494.50;5073662;28;20448;-76
2022/05/07 02:54:32;;;;;;;14.70;12.50;;;8.50;99.90;;;7.22;92.76;98505.63;5079061;28;20461;-71
2022/05/07 02:56:59;;;;;;;15.77;10.90;;;8.50;99.90;;;7.14;92.06;98469.94;5077695;28;20852;-71
2022/05/07 02:59:26;;;;;;;15.47;10.80;;;8.50;99.90;;;7.20;91.83;98498.75;5083380;28;20547;-72
2022/05/07 03:01:55;;;;;;;16.20;10.50;;;8.50;99.00;;;6.90;93.58;98490.63;5074009;28;20859;-72
2022/05/07 03:04:22;;;;;;;14.53;10.67;;;8.30;99.90;;;6.74;94.35;98480.84;5081238;28;20489;-74
2022/05/07 03:06:50;;;;;;;14.10;10.70;;;8.20;99.90;;;6.91;94.45;98503.88;5082407;28;20439;-78
2022/05/07 03:09:17;;;;;;;15.73;9.30;;;8.20;99.90;;;7.00;93.16;98511.88;5080786;28;20535;-73
2022/05/07 03:11:44;;;;;;;13.63;10.90;;;8.30;99.90;;;6.85;94.68;98509.13;5082887;28;20569;-72
2022/05/07 03:14:12;;;;;;;12.37;10.23;;;8.10;99.90;;;6.74;94.67;98499.66;5081119;28;20454;-76
2022/05/07 03:16:40;;;;;;;10.63;9.60;;;8.00;99.90;;;6.83;94.82;98512.03;5095467;27;21055;-72
2022/05/07 03:19:08;;;;;;;11.83;10.67;;;8.10;99.90;;;6.76;94.85;98495.78;5077996;28;20450;-76
2022/05/07 03:21:36;;;;;;;16.17;11.70;;;8.10;99.90;;;6.61;95.15;98492.19;5096694;28;20480;-72
2022/05/07 03:24:04;;;;;;;12.07;10.77;;;8.00;99.90;;;6.65;95.00;98506.94;5083808;28;20443;-81
2022/05/07 03:26:31;;;;;;;12.80;11.60;;;7.90;99.90;;;6.60;96.49;98506.63;5082255;28;20447;-72
2022/05/07 03:28:59;;;;;;;15.03;12.57;;;7.80;99.90;;;6.59;95.91;98495.03;5082557;28;20466;-74
2022/05/07 03:31:27;;;;;;;18.57;16.67;;;7.80;99.90;;;6.63;96.76;98517.03;5080830;28;20448;-73
2022/05/07 03:33:54;;;;;;;21.10;17.67;;;7.80;99.90;;;6.54;96.54;98512.69;5080867;28;20450;-80
2022/05/07 03:36:23;;;;;;;28.10;20.00;;;7.80;99.90;;;6.67;95.72;98504.91;5077126;28;21009;-73
2022/05/07 03:38:50;;;;;;;28.70;21.00;;;7.90;99.90;;;6.62;96.46;98515.34;5074847;28;20948;-73
2022/05/07 03:41:19;;;;;;;21.93;18.90;;;7.90;99.90;;;6.48;96.02;98501.66;5080366;28;21259;-75
2022/05/07 03:43:46;;;;;;;21.47;19.27;;;7.80;99.90;;;6.51;96.73;98519.25;5084134;28;20458;-72
2022/05/07 03:46:14;;;;;;;19.20;17.00;;;7.70;99.90;;;6.39;97.37;98510.78;5078799;28;20457;-75
2022/05/07 03:48:41;;;;;;;17.73;15.30;;;7.70;99.90;;;6.47;97.77;98515.25;5080246;28;20550;-73
2022/05/07 03:51:08;;;;;;;14.73;13.23;;;7.70;99.90;;;6.58;96.76;98520.22;5078062;28;20881;-77
2022/05/07 03:53:37;;;;;;;13.03;11.60;;;7.80;99.90;;;6.67;96.44;98512.97;5079386;28;21186;-71
2022/05/07 03:56:06;;;;;;;13.40;12.20;;;7.90;99.90;;;6.60;96.49;98517.38;5072674;28;20612;-74
2022/05/07 03:58:33;;;;;;;14.40;12.87;;;7.80;99.90;;;6.57;96.06;98525.75;5096220;28;20452;-73
2022/05/07 04:01:01;;;;;;;17.37;12.33;;;7.90;99.90;;;6.58;96.95;98517.53;5069714;28;20468;-72
2022/05/07 04:03:29;;;;;;;15.70;14.00;;;7.80;99.90;;;6.56;96.79;98516.88;5080325;28;20459;-75
2022/05/07 04:05:58;;;;;;;20.07;17.90;;;7.80;99.90;;;6.40;97.95;98517.81;5074647;28;20465;-72
2022/05/07 04:08:25;;;;;;;14.37;13.00;;;7.80;99.90;;;6.60;97.59;98517.38;5076288;28;20919;-72
2022/05/07 04:10:54;;;;;;;17.57;15.73;;;7.80;99.90;;;6.59;97.05;98524.59;5080869;28;20457;-71
2022/05/07 04:13:21;;;;;;;21.60;17.70;;;7.80;99.90;;;6.59;97.34;98524.59;5079090;28;20455;-72
2022/05/07 04:15:48;;;;;;;19.00;17.00;;;7.80;99.90;;;6.54;96.79;98523.44;5078576;28;20963;-71
2022/05/07 04:18:16;;;;;;;22.90;20.43;;;7.80;99.90;;;6.48;97.18;98515.09;5074242;28;20460;-71
2022/05/07 04:20:43;;;;;;;24.70;19.77;;;7.80;99.90;;;6.69;97.16;98524.34;5080675;28;20941;-77
2022/05/07 04:23:11;;;;;;;21.37;19.17;;;7.90;99.90;;;6.65;96.44;98505.06;5080015;28;20983;-78
2022/05/07 04:25:39;;;;;;;24.00;21.40;;;8.00;99.90;;;6.86;96.27;98521.53;5073875;28;20460;-72
2022/05/07 04:28:07;;;;;;;19.80;17.70;;;8.20;99.90;;;7.21;94.74;98519.28;5075247;28;20540;-72
2022/05/07 04:30:35;;;;;;;19.40;15.87;;;8.50;99.90;;;7.58;91.93;98532.84;5077555;28;20479;-72
2022/05/07 04:33:02;;;;;;;17.07;15.30;;;8.80;99.90;;;8.03;90.38;98535.59;5083039;28;20450;-74
2022/05/07 04:35:30;;;;;;;21.27;19.07;;;9.30;96.50;;;8.41;86.82;98535.44;5082621;28;20459;-72
2022/05/07 04:37:57;;;;;;;18.80;16.80;;;9.80;93.10;;;8.76;85.46;98537.50;5085576;28;20462;-74
2022/05/07 04:40:24;;;;;;;14.73;13.33;;;10.00;91.00;;;8.76;84.12;98532.13;5088029;28;20543;-74
2022/05/07 04:42:51;;;;;;;13.00;11.73;;;10.20;88.70;;;8.96;83.24;98537.72;5084599;28;20447;-77
2022/05/07 04:45:19;;;;;;;16.03;14.10;;;10.40;87.60;;;8.64;83.37;98539.88;5081882;28;20480;-72
2022/05/07 04:47:46;;;;;;;15.43;13.83;;;10.30;86.20;;;8.25;85.16;98533.81;5089567;28;20451;-74
2022/05/07 04:50:14;;;;;;;14.40;12.90;;;9.90;89.00;;;8.03;86.64;98533.72;5081211;28;20876;-77
2022/05/07 04:52:41;;;;;;;14.13;12.63;;;9.60;91.10;;;7.93;87.39;98530.47;5085015;28;20500;-72
2022/05/07 04:55:09;;;;;;;15.80;14.20;;;9.40;92.30;;;7.66;88.75;98524.72;5086895;28;20891;-73
2022/05/07 04:57:36;;;;;;;12.63;11.50;;;9.20;93.00;;;7.91;87.80;98544.13;5081609;28;20455;-75
2022/05/07 05:00:06;;;;;;;13.30;12.00;;;9.20;93.70;;;7.97;87.61;98534.47;5088016;28;20450;-75
2022/05/07 05:02:35;;;;;;;15.83;11.67;;;9.30;93.50;;;8.18;87.19;98536.41;5081035;28;20571;-74
2022/05/07 05:05:02;;;;;;;12.63;11.37;;;9.40;92.70;;;8.07;86.58;98534.19;5083770;28;20458;-78
2022/05/07 05:07:29;;;;;;;13.03;11.77;;;9.50;92.20;;;8.37;84.74;98523.38;5079689;28;20562;-80
2022/05/07 05:09:56;;;;;;;11.87;10.60;;;9.70;91.30;;;8.48;84.35;98540.91;5084449;28;20464;-81
2022/05/07 05:12:24;;;;;;;11.87;10.77;;;9.80;91.00;;;9.23;82.43;98537.13;5085236;28;20460;-79
2022/05/07 05:15:04;;;;;;;12.40;11.23;;;10.20;89.10;;;9.27;80.54;98544.63;5082659;28;20482;-81
2022/05/07 05:17:34;;;;;;;11.60;10.50;;;10.70;84.80;;;10.51;75.26;98540.66;5103253;27;21003;-79
2022/05/07 05:20:05;;;;;;;11.33;10.40;;;11.60;82.00;;;11.24;70.92;98504.81;5083312;28;20483;-79
2022/05/07 05:22:32;;;;;;;9.27;8.47;;;12.60;79.30;;;11.86;69.03;98539.75;5080012;28;20528;-83
2022/05/07 05:24:59;;;;;;;9.73;8.83;;;13.40;77.00;;;11.71;68.71;98548.09;5079137;28;20542;-77
2022/05/07 05:27:27;;;;;;;9.50;8.80;;;13.30;75.80;;;11.14;70.45;98544.97;5079755;28;20479;-77
2022/05/07 05:29:54;;;;;;;10.40;9.50;;;12.90;76.40;;;10.79;73.55;98561.31;5082164;28;20452;-77
2022/05/07 05:32:21;;;;;;;9.53;8.77;;;12.50;77.70;;;10.55;73.94;98558.16;5081072;28;20455;-79
2022/05/07 05:34:52;;;;;;;10.97;9.83;;;12.10;78.60;;;10.04;74.51;98498.91;5082760;28;20541;-77
2022/05/07 05:37:20;;;;;;;10.50;9.00;;;12.00;78.80;;;11.08;72.51;98559.31;5082283;28;20537;-78
2022/05/07 05:39:48;;;;;;;9.40;8.50;;;12.50;78.50;;;11.46;69.48;98561.44;5080199;28;20475;-77
2022/05/07 05:42:15;;;;;;;14.20;9.73;;;13.30;76.20;;;10.86;72.20;98562.19;5076084;28;20581;-77
2022/05/07 05:44:44;;;;;;;11.63;10.53;;;12.70;76.20;;;10.59;72.91;98572.91;5083233;28;20500;-76
2022/05/07 05:47:11;;;;;;;11.40;10.50;;;12.20;77.10;;;10.12;74.55;98568.09;5084170;28;20447;-87
2022/05/07 05:49:38;;;;;;;10.37;9.50;;;11.80;78.20;;;9.39;76.31;98522.53;5077280;28;20459;-82
2022/05/07 05:52:09;;;;;;;11.47;10.27;;;11.20;79.20;;;9.60;77.10;98560.25;5078802;28;20526;-82
2022/05/07 05:54:37;;;;;;;13.47;12.20;;;11.10;80.50;;;9.59;77.43;98574.78;5079699;28;20933;-85
2022/05/07 05:57:06;;;;;;;14.17;12.87;;;11.00;81.20;;;9.65;78.33;98570.47;5079381;28;20450;-85
2022/05/07 05:59:33;;;;;;;16.70;15.07;;;10.90;82.50;;;10.31;76.19;98563.00;5080231;28;21055;-82
2022/05/07 06:02:01;;;;;;;13.57;12.47;;;11.40;81.70;;;10.42;74.11;98500.31;5081738;28;20498;-84
2022/05/07 06:04:28;;;;;;;13.67;12.40;;;12.20;80.20;;;11.11;72.34;98561.59;5087868;28;20534;-80
2022/05/07 06:06:56;;;;;;;14.30;13.00;;;12.50;78.90;;;11.04;72.53;98551.63;5088901;28;20480;-83
2022/05/07 06:09:24;;;;;;;12.63;11.00;;;12.50;78.80;;;11.27;72.67;98572.03;5090087;28;20502;-76
2022/05/07 06:11:52;;;;;;;12.23;11.23;;;12.50;78.90;;;11.46;71.55;98567.69;5080075;28;20549;-80
2022/05/07 06:14:20;;;;;;;18.10;16.30;;;12.60;78.90;;;11.57;69.35;98563.50;5083086;28;20467;-84
2022/05/07 06:16:47;;;;;;;24.17;21.57;;;12.80;78.00;;;11.62;68.52;98571.84;5080736;28;20450;-81
2022/05/07 06:19:15;;;;;;;20.17;18.07;;;12.80;76.40;;;11.72;69.12;98570.56;5082074;28;20530;-79
2022/05/07 06:21:42;;;;;;;14.83;12.73;;;12.90;77.00;;;11.71;68.80;98571.63;5080385;28;20480;-81
2022/05/07 06:29:43;;;;;;;9.53;8.73;;;13.30;76.20;;;12.30;67.02;98566.34;5086879;28;20455;-80
2022/05/07 06:32:14;;;;;;;9.87;9.00;;;13.50;75.80;;;12.42;67.96;98572.75;5086793;28;20488;-79
2022/05/07 06:34:43;;;;;;;9.60;8.80;;;13.60;76.50;;;12.93;65.30;98553.97;5085915;28;20464;-80
2022/05/07 06:37:10;;;;;;;9.47;8.67;;;14.00;75.50;;;13.21;63.44;98571.75;5081195;28;20454;-80
2022/05/07 06:39:37;;;;;;;12.67;11.47;;;14.30;73.80;;;13.27;62.66;98565.44;5088640;28;20482;-79
2022/05/07 06:42:07;;;;;;;9.20;8.50;;;14.40;72.80;;;13.13;62.47;98567.41;5083203;28;20552;-79
2022/05/07 06:44:35;;;;;;;10.10;9.10;;;14.30;72.40;;;12.82;62.28;98541.94;5079256;28;20571;-80
2022/05/07 06:47:03;;;;;;;8.03;7.43;;;14.20;71.80;;;12.76;62.60;98569.91;5085970;28;20447;-79
2022/05/07 06:49:30;;;;;;;8.80;7.80;;;14.00;71.50;;;12.28;64.32;98527.78;5083513;28;20445;-78
2022/05/07 06:51:57;;;;;;;7.97;7.33;;;13.90;72.30;;;12.71;63.93;98561.59;5082687;28;20934;-78
2022/05/07 06:54:25;;;;;;;9.23;8.33;;;13.90;72.80;;;12.98;63.99;98577.72;5080819;28;20541;-79
2022/05/07 06:56:52;;;;;;;9.07;8.10;;;14.10;73.00;;;12.87;63.96;98554.84;5084865;28;20463;-78
2022/05/07 06:59:21;;;;;;;11.00;8.27;;;14.10;72.70;;;12.91;63.31;98556.06;5083188;28;20920;-75
2022/05/07 07:01:48;;;;;;;7.73;7.00;;;14.10;72.50;;;13.15;62.64;98572.63;5078347;28;20504;-79
2022/05/07 07:04:15;;;;;;;8.13;7.43;;;14.20;72.00;;;13.22;62.65;98561.72;5083069;28;20724;-79
2022/05/07 07:06:43;;;;;;;8.30;7.70;;;14.40;72.10;;;13.50;61.68;98566.75;5086866;28;20547;-79
2022/05/07 07:09:11;;;;;;;8.53;7.80;;;14.60;71.50;;;13.15;62.46;98540.06;5082789;28;20459;-78
2022/05/07 07:11:38;;;;;;;9.83;7.50;;;14.50;71.50;;;13.30;62.61;98553.31;5082179;28;20504;-78
2022/05/07 07:14:06;;;;;;;9.93;8.60;;;14.40;72.00;;;13.42;63.51;98567.84;5076535;28;20463;-76
2022/05/07 07:16:34;;;;;;;8.43;7.50;;;14.50;72.60;;;13.62;63.25;98566.03;5078834;28;20526;-76
2022/05/07 07:19:01;;;;;;;9.50;8.57;;;14.60;72.70;;;14.01;61.73;98562.13;5075900;28;20738;-77
2022/05/07 07:21:28;;;;;;;11.60;8.80;;;15.00;72.20;;;14.01;62.62;98564.84;5081615;28;20799;-76
2022/05/07 07:23:56;;;;;;;10.90;8.73;;;15.10;72.40;;;13.92;61.58;98544.44;5083472;28;20950;-77
2022/05/07 07:26:24;;;;;;;10.20;8.17;;;15.40;71.40;;;14.63;60.36;98554.94;5079580;28;20463;-78
2022/05/07 07:28:51;;;;;;;10.47;7.20;;;15.60;71.50;;;14.99;59.18;98555.13;5080558;28;20453;-79
2022/05/07 07:31:21;;;;;;;8.40;7.70;;;16.00;70.40;;;14.96;59.66;98553.72;5075658;28;21075;-78
2022/05/07 07:33:50;;;;;;;7.10;6.57;;;16.10;70.20;;;15.07;58.83;98537.63;5080303;28;20464;-79
2022/05/07 07:36:17;;;;;;;7.77;7.20;;;16.20;69.60;;;15.19;59.17;98562.19;5077024;28;20490;-78
2022/05/07 07:38:45;;;;;;;8.73;7.93;;;16.20;70.00;;;15.31;58.43;98554.84;5079663;28;20874;-79
2022/05/07 07:41:12;;;;;;;8.33;7.70;;;16.30;69.70;;;15.22;59.03;98561.72;5083257;28;20458;-81
2022/05/07 07:43:39;;;;;;;7.97;7.27;;;16.40;69.40;;;15.07;59.41;98549.38;5089300;28;20509;-77
2022/05/07 07:48:53;;;;;;;8.83;8.13;;;16.10;69.60;;;15.01;60.57;98562.00;5079236;28;20456;-80
2022/05/07 07:51:21;;;;;;;8.70;8.00;;;16.10;70.20;;;15.19;60.13;98546.66;5086729;28;20847;-79
2022/05/07 07:53:48;;;;;;;8.40;7.60;;;16.30;70.30;;;15.01;60.55;98548.38;5088205;28;20497;-78
2022/05/07 07:56:18;;;;;;;8.93;8.10;;;16.20;70.20;;;14.73;59.79;98494.59;5087276;28;20725;-77
2022/05/07 07:58:45;;;;;;;7.90;7.30;;;16.20;69.70;;;15.04;59.41;98549.00;5081833;28;20502;-77
2022/05/07 08:01:13;;;;;;;8.37;7.77;;;16.10;69.40;;;14.97;59.67;98539.03;5071565;28;20558;-78
2022/05/07 08:03:40;;;;;;;8.40;7.80;;;16.00;69.40;;;15.04;59.60;98544.38;5089128;28;20866;-81
2022/05/07 08:06:09;;;;;;;7.47;6.97;;;16.10;69.80;;;15.08;60.84;98550.16;5078957;28;20480;-79
2022/05/07 08:14:07;;;;;;;8.20;7.60;;;16.40;69.50;;;15.21;59.15;98541.00;5089178;28;20456;-79
2022/05/07 08:16:36;;;;;;;9.90;8.97;;;16.40;69.20;;;15.67;57.76;98535.84;5084242;28;20545;-79
2022/05/07 08:19:04;;;;;;;8.70;8.00;;;16.60;68.90;;;15.67;58.54;98546.75;5091723;28;20535;-79
2022/05/07 08:21:32;;;;;;;8.90;8.07;;;16.60;69.20;;;15.92;57.81;98535.66;5088515;28;20957;-80
2022/05/07 08:24:00;;;;;;;10.93;8.63;;;16.90;69.20;;;15.89;58.31;98544.28;5089941;28;20488;-81
2022/05/07 08:26:27;;;;;;;9.63;8.70;;;16.90;69.10;;;15.88;57.75;98528.97;5086430;28;20441;-80
2022/05/07 08:28:56;;;;;;;8.70;7.57;;;16.90;68.50;;;16.10;57.08;98537.41;5097995;28;20463;-80
2022/05/07 08:31:23;;;;;;;8.57;7.77;;;17.00;68.40;;;16.22;56.81;98531.94;5088482;28;20948;-80
2022/05/07 08:33:52;;;;;;;9.20;8.40;;;17.20;68.20;;;16.16;57.18;98529.34;5084438;28;20460;-82
2022/05/07 08:36:19;;;;;;;8.33;7.63;;;17.20;67.90;;;16.38;56.62;98530.34;5077794;28;20548;-82
2022/05/07 08:38:48;;;;;;;8.67;7.87;;;17.30;67.90;;;16.76;54.31;98536.28;5080086;28;20496;-81
2022/05/07 08:41:15;;;;;;;9.27;8.47;;;17.60;66.40;;;17.10;52.71;98541.84;5076540;28;21251;-80
2022/05/07 08:43:43;;;;;;;8.77;8.17;;;18.00;65.20;;;17.08;52.74;98532.28;5083273;28;20780;-78
2022/05/07 08:46:14;;;;;;;9.50;8.60;;;18.00;64.60;;;17.15;51.38;98521.19;5081037;28;20523;-79
2022/05/07 08:48:45;;;;;;;8.60;7.90;;;18.10;63.00;;;17.31;50.89;98514.09;5083453;28;20472;-78
2022/05/07 08:51:15;;;;;;;8.30;7.00;;;18.40;62.80;;;17.39;49.75;98533.63;5080267;28;20459;-80
2022/05/07 08:53:43;;;;;;;13.83;8.00;;;18.50;60.80;;;17.99;48.84;98509.38;5083429;28;20459;-79
2022/05/07 08:56:12;;;;;;;8.47;7.53;;;18.80;61.10;;;17.83;47.77;98516.56;5085100;28;21005;-70
2022/05/07 08:58:47;;;;;;;7.73;7.13;;;19.00;59.10;;;17.86;49.17;98528.06;5079597;28;20538;-71
2022/05/07 09:01:13;;;;;;;7.80;7.20;;;19.00;60.00;;;18.24;48.01;98527.25;5082978;28;21275;-71
2022/05/07 09:03:43;;;;;;;6.70;6.10;;;19.20;59.60;;;18.21;47.49;98532.41;5082744;28;20490;-70
2022/05/07 09:06:22;;;;;;;8.63;6.20;;;19.10;59.00;;;18.51;47.87;98523.75;5076938;28;20455;-72
2022/05/07 09:08:50;;;;;;;6.70;6.10;;;19.30;59.70;;;18.92;47.52;98531.59;5103693;27;20524;-72
2022/05/07 09:11:23;;;;;;;7.90;7.10;;;19.60;59.30;;;18.69;44.85;98535.47;5072735;28;20455;-69
2022/05/07 09:14:01;;;;;;;7.77;6.27;;;19.70;57.00;;;18.40;45.92;98527.44;5077275;28;20463;-70
2022/05/07 09:16:40;;;;;;;7.10;6.50;;;19.40;57.10;;;18.20;46.56;98536.22;5091069;28;20456;-72
2022/05/07 09:19:20;;;;;;;6.80;6.10;;;19.10;56.80;;;18.31;45.79;98529.81;5081875;28;20536;-73
2022/05/07 09:21:48;;;;;;;12.63;6.60;;;19.20;56.50;;;18.59;46.16;98532.59;5079563;28;20475;-73
2022/05/07 09:24:15;;;;;;;7.03;6.43;;;19.30;57.00;;;18.46;45.17;98528.34;5085102;28;20945;-72
2022/05/07 09:26:47;;;;;;;7.17;6.57;;;19.40;56.40;;;18.37;44.77;98519.75;5085759;28;20471;-72
2022/05/07 09:29:16;;;;;;;7.30;6.60;;;19.20;55.50;;;18.47;44.52;98519.06;5089658;28;20471;-75
2022/05/07 09:31:45;;;;;;;7.37;6.77;;;19.30;55.30;;;18.65;42.73;98520.59;5086064;28;20849;-74
2022/05/07 09:37:00;;;;;;;7.67;6.87;;;19.30;54.20;;;18.01;45.32;98525.53;5086152;28;20451;-74
2022/05/07 09:39:34;;;;;;;8.83;6.73;;;19.00;54.80;;;18.32;45.03;98516.94;5092732;28;20518;-71
2022/05/07 09:42:04;;;;;;;7.23;6.70;;;19.20;55.20;;;17.91;44.82;98490.69;5092446;28;20566;-73
2022/05/07 09:44:33;;;;;;;8.43;6.30;;;19.00;54.50;;;18.09;45.35;98507.91;5092166;28;20439;-74
2022/05/07 09:47:00;;;;;;;7.87;7.17;;;18.90;54.70;;;17.94;44.58;98505.75;5082712;28;20456;-74
2022/05/07 09:49:29;;;;;;;7.40;6.70;;;18.90;54.20;;;18.25;44.19;98506.19;5080073;28;20456;-73
2022/05/07 09:51:56;;;;;;;6.93;6.43;;;19.00;54.00;;;18.74;42.54;98504.59;5091230;28;20456;-71
2022/05/07 10:00:01;;;;;;;6.93;6.33;;;20.00;53.50;;;19.34;40.28;98504.63;5083836;28;20475;-73
2022/05/07 10:02:47;;;;;;;7.93;6.27;;;20.30;51.80;;;18.98;41.86;98494.97;5083920;28;20474;-76
2022/05/07 10:05:45;;;;;;;7.30;6.20;;;20.00;52.40;;;19.20;42.16;98494.13;5084794;28;20714;-74
2022/05/07 10:08:33;;;;;;;7.30;6.60;;;20.10;53.10;;;19.18;42.26;98500.94;5079388;28;20473;-74
2022/05/07 10:11:03;;;;;;;6.40;5.80;;;20.20;53.30;;;18.87;42.30;98498.69;5084877;28;20459;-75
2022/05/07 10:13:32;;;;;;;6.60;6.00;;;19.90;52.10;;;19.10;42.68;98494.81;5090833;28;21060;-73
2022/05/07 10:16:00;;;;;;;7.60;6.90;;;20.00;52.70;;;19.14;41.58;98495.13;5079768;28;20524;-74
2022/05/07 10:18:35;;;;;;;6.73;6.13;;;20.00;51.70;;;19.43;41.09;98492.09;5079243;28;20517;-74
2022/05/07 10:21:12;;;;;;;6.23;5.70;;;20.30;51.80;;;19.60;40.60;98485.63;5071775;28;20533;-73
2022/05/07 10:23:52;;;;;;;6.30;5.90;;;20.50;51.50;;;19.59;39.71;98489.47;5079342;28;20614;-74
2022/05/07 10:26:20;;;;;;;6.60;5.93;;;20.40;50.70;;;19.54;39.28;98479.28;5076555;28;20462;-71
2022/05/07 10:28:50;;;;;;;6.07;5.57;;;20.50;50.40;;;19.28;41.37;98481.00;5082437;28;20487;-80
2022/05/07 10:31:22;;;;;;;5.17;4.77;;;20.30;51.20;;;19.47;38.63;98485.00;5077457;28;20474;-77
2022/05/07 10:33:50;;;;;;;6.37;5.50;;;20.40;49.40;;;19.40;38.47;98468.78;5083570;28;20495;-86
2022/05/07 10:36:20;;;;;;;5.60;5.10;;;20.40;49.30;;;19.64;37.59;98478.56;5084794;28;20519;-75
2022/05/07 10:38:47;;;;;;;6.93;5.67;;;20.60;48.80;;;19.74;37.48;98464.09;5083744;28;20930;-77
2022/05/07 10:41:24;;;;;;;4.90;4.53;;;20.70;48.30;;;20.23;36.54;98472.03;5069979;28;20536;-78
2022/05/07 10:44:06;;;;;;;7.13;4.97;;;21.00;48.10;;;20.28;36.56;98457.53;5081570;28;20569;-80
2022/05/07 10:46:43;;;;;;;7.40;5.63;;;21.10;48.00;;;20.13;37.92;98461.00;5092152;28;21252;-80
2022/05/07 10:49:11;;;;;;;5.67;5.27;;;21.20;48.60;;;20.11;39.12;98474.16;5080968;28;20451;-79
2022/05/07 10:51:50;;;;;;;6.83;5.47;;;21.10;49.40;;;20.43;38.78;98473.19;5078207;28;20466;-78
2022/05/07 10:54:21;;;;;;;6.10;5.50;;;21.20;49.80;;;20.13;37.07;98469.25;5079100;28;21364;-78
2022/05/07 10:56:50;;;;;;;6.20;5.30;;;21.20;48.30;;;20.04;38.22;98471.66;5076903;28;20919;-75
2022/05/07 10:59:23;;;;;;;6.80;6.20;;;21.00;48.70;;;20.07;37.00;98459.34;5098708;28;20485;-75